createdAt,value
2022-09-11T00:00:47.291Z,14.53
2022-09-11T00:01:49.069Z,14.53
2022-09-11T00:04:53.517Z,14.51
2022-09-11T00:04:55.196Z,14.5
2022-09-11T00:05:56.349Z,14.49
2022-09-11T00:06:57.711Z,14.5
2022-09-11T00:07:59.436Z,14.5
2022-09-11T00:09:01.554Z,14.5
2022-09-11T00:10:02.917Z,14.5
2022-09-11T00:11:04.643Z,14.48
2022-09-11T00:12:06.366Z,14.47
2022-09-11T00:13:08.103Z,14.46
2022-09-11T00:14:09.839Z,14.45
2022-09-11T00:15:11.572Z,14.44
2022-09-11T00:16:13.441Z,14.44
2022-09-11T00:17:15.050Z,14.44
2022-09-11T00:18:16.788Z,14.44
2022-09-11T00:19:18.508Z,14.45
2022-09-11T00:20:20.255Z,14.44
2022-09-11T00:21:22.001Z,14.43
2022-09-11T00:22:23.725Z,14.42
2022-09-11T00:23:25.467Z,14.43
2022-09-11T00:24:27.174Z,14.42
2022-09-11T00:25:28.969Z,14.42
2022-09-11T00:26:30.675Z,14.42
2022-09-11T00:27:32.398Z,14.43
2022-09-11T00:28:34.129Z,14.42
2022-09-11T00:29:35.892Z,14.43
2022-09-11T00:30:37.619Z,14.43
2022-09-11T00:31:39.401Z,14.42
2022-09-11T00:32:41.084Z,14.42
2022-09-11T00:33:42.925Z,14.43
2022-09-11T00:34:44.556Z,14.43
2022-09-11T00:35:46.271Z,14.43
2022-09-11T00:36:48.032Z,14.43
2022-09-11T00:37:49.737Z,14.43
2022-09-11T00:38:51.468Z,14.44
2022-09-11T00:39:53.229Z,14.45
2022-09-11T00:40:54.941Z,14.45
2022-09-11T00:41:56.713Z,14.45
2022-09-11T00:42:58.418Z,14.45
2022-09-11T00:44:00.158Z,14.46
2022-09-11T00:45:01.892Z,14.47
2022-09-11T00:46:03.712Z,14.48
2022-09-11T00:47:05.346Z,14.47
2022-09-11T00:48:07.080Z,14.47
2022-09-11T00:49:08.816Z,14.47
2022-09-11T00:50:10.553Z,14.48
2022-09-11T00:51:12.292Z,14.49
2022-09-11T00:52:14.030Z,14.49
2022-09-11T00:53:15.761Z,14.49
2022-09-11T00:54:17.481Z,14.48
2022-09-11T00:55:19.219Z,14.49
2022-09-11T00:56:20.975Z,14.49
2022-09-11T00:57:22.700Z,14.49
2022-09-11T00:58:24.437Z,14.5
2022-09-11T00:59:26.159Z,14.49
2022-09-11T01:00:27.908Z,14.49
2022-09-11T01:01:29.630Z,14.49
2022-09-11T01:02:31.357Z,14.49
2022-09-11T01:03:33.217Z,14.49
2022-09-11T01:04:34.843Z,14.49
2022-09-11T01:05:36.578Z,14.5
2022-09-11T01:06:38.338Z,14.5
2022-09-11T01:07:40.040Z,14.51
2022-09-11T01:08:41.776Z,14.5
2022-09-11T01:09:43.514Z,14.5
2022-09-11T01:10:45.244Z,14.51
2022-09-11T01:11:47.000Z,14.51
2022-09-11T01:12:48.752Z,14.51
2022-09-11T01:13:50.453Z,14.51
2022-09-11T01:14:52.181Z,14.52
2022-09-11T01:15:54.015Z,14.51
2022-09-11T01:16:55.660Z,14.51
2022-09-11T01:17:57.387Z,14.51
2022-09-11T01:18:59.112Z,14.5
2022-09-11T01:20:00.860Z,14.5
2022-09-11T01:21:07.615Z,14.48
2022-09-11T01:22:04.316Z,14.48
2022-09-11T01:23:06.051Z,14.49
2022-09-11T01:24:07.802Z,14.49
2022-09-11T01:25:09.535Z,14.48
2022-09-11T01:26:11.295Z,14.48
2022-09-11T01:27:13.010Z,14.48
2022-09-11T01:28:14.738Z,14.47
2022-09-11T01:29:16.506Z,14.48
2022-09-11T01:30:18.210Z,14.48
2022-09-11T01:31:19.996Z,14.47
2022-09-11T01:32:21.677Z,14.47
2022-09-11T01:33:23.420Z,14.47
2022-09-11T01:34:25.183Z,14.48
2022-09-11T01:35:26.877Z,14.49
2022-09-11T01:36:28.632Z,14.49
2022-09-11T01:37:30.350Z,14.5
2022-09-11T01:38:32.089Z,14.49
2022-09-11T01:39:33.819Z,14.5
2022-09-11T01:40:35.564Z,14.5
2022-09-11T01:41:37.301Z,14.5
2022-09-11T01:42:39.034Z,14.5
2022-09-11T01:43:40.777Z,14.5
2022-09-11T01:44:42.498Z,14.5
2022-09-11T01:45:44.283Z,14.5
2022-09-11T01:46:45.980Z,14.49
2022-09-11T01:47:47.710Z,14.5
2022-09-11T01:48:49.444Z,14.49
2022-09-11T01:49:51.185Z,14.48
2022-09-11T01:50:52.916Z,14.5
2022-09-11T01:51:54.658Z,14.49
2022-09-11T01:52:56.382Z,14.48
2022-09-11T01:53:58.132Z,14.48
2022-09-11T01:54:59.856Z,14.48
2022-09-11T01:56:04.661Z,14.48
2022-09-11T01:57:03.318Z,14.47
2022-09-11T01:58:05.052Z,14.46
2022-09-11T01:59:06.792Z,14.47
2022-09-11T02:00:08.545Z,14.46
2022-09-11T02:01:10.316Z,14.46
2022-09-11T02:02:12.021Z,14.45
2022-09-11T02:03:13.728Z,14.45
2022-09-11T02:04:15.461Z,14.45
2022-09-11T02:05:17.222Z,14.44
2022-09-11T02:06:18.950Z,14.43
2022-09-11T02:07:20.683Z,14.43
2022-09-11T02:08:22.442Z,14.43
2022-09-11T02:09:24.142Z,14.43
2022-09-11T02:10:25.875Z,14.42
2022-09-11T02:11:27.613Z,14.41
2022-09-11T02:12:29.344Z,14.41
2022-09-11T02:13:31.088Z,14.41
2022-09-11T02:14:32.822Z,14.4
2022-09-11T02:15:34.567Z,14.39
2022-09-11T02:16:36.386Z,14.38
2022-09-11T02:17:38.019Z,14.39
2022-09-11T02:18:39.743Z,14.38
2022-09-11T02:19:41.478Z,14.38
2022-09-11T02:20:43.207Z,14.36
2022-09-11T02:21:44.967Z,14.35
2022-09-11T02:22:46.675Z,14.34
2022-09-11T02:23:48.417Z,14.33
2022-09-11T02:24:50.158Z,14.33
2022-09-11T02:25:51.893Z,14.32
2022-09-11T02:26:53.628Z,14.32
2022-09-11T02:27:55.352Z,14.31
2022-09-11T02:28:57.095Z,14.31
2022-09-11T02:29:58.869Z,14.31
2022-09-11T02:31:00.572Z,14.3
2022-09-11T02:32:02.311Z,14.3
2022-09-11T02:33:04.027Z,14.3
2022-09-11T02:34:05.765Z,14.3
2022-09-11T02:35:07.501Z,14.3
2022-09-11T02:36:09.271Z,14.31
2022-09-11T02:37:10.987Z,14.3
2022-09-11T02:38:12.729Z,14.3
2022-09-11T02:39:14.460Z,14.31
2022-09-11T02:40:16.238Z,14.31
2022-09-11T02:41:17.917Z,14.31
2022-09-11T02:42:19.643Z,14.31
2022-09-11T02:43:21.373Z,14.31
2022-09-11T02:44:23.130Z,14.32
2022-09-11T02:45:24.884Z,14.33
2022-09-11T02:46:26.593Z,14.34
2022-09-11T02:47:28.321Z,14.35
2022-09-11T02:48:30.045Z,14.35
2022-09-11T02:49:31.811Z,14.36
2022-09-11T02:50:33.519Z,14.37
2022-09-11T02:51:35.275Z,14.39
2022-09-11T02:52:36.989Z,14.4
2022-09-11T02:53:38.733Z,14.41
2022-09-11T02:54:40.462Z,14.43
2022-09-11T02:55:42.197Z,14.44
2022-09-11T02:56:43.931Z,14.45
2022-09-11T02:57:45.661Z,14.45
2022-09-11T02:58:47.402Z,14.46
2022-09-11T02:59:49.135Z,14.46
2022-09-11T03:00:50.894Z,14.47
2022-09-11T03:01:52.633Z,14.47
2022-09-11T03:02:54.347Z,14.48
2022-09-11T03:03:56.057Z,14.47
2022-09-11T03:04:57.801Z,14.47
2022-09-11T03:05:59.540Z,14.48
2022-09-11T03:07:01.285Z,14.47
2022-09-11T03:08:03.002Z,14.47
2022-09-11T03:09:04.732Z,14.46
2022-09-11T03:10:06.475Z,14.46
2022-09-11T03:11:08.211Z,14.46
2022-09-11T03:12:09.951Z,14.46
2022-09-11T03:13:11.665Z,14.46
2022-09-11T03:14:13.443Z,14.46
2022-09-11T03:15:15.135Z,14.47
2022-09-11T03:16:16.986Z,14.47
2022-09-11T03:17:18.614Z,14.47
2022-09-11T03:18:20.336Z,14.48
2022-09-11T03:19:22.076Z,14.49
2022-09-11T03:20:23.817Z,14.5
2022-09-11T03:21:25.545Z,14.51
2022-09-11T03:22:27.291Z,14.52
2022-09-11T03:23:29.011Z,14.53
2022-09-11T03:24:30.751Z,14.54
2022-09-11T03:25:32.484Z,14.55
2022-09-11T03:26:34.233Z,14.56
2022-09-11T03:27:35.971Z,14.57
2022-09-11T03:28:37.686Z,14.57
2022-09-11T03:29:39.433Z,14.58
2022-09-11T03:30:41.147Z,14.59
2022-09-11T03:31:42.955Z,14.59
2022-09-11T03:32:44.672Z,14.6
2022-09-11T03:33:46.387Z,14.6
2022-09-11T03:34:48.134Z,14.61
2022-09-11T03:35:49.846Z,14.61
2022-09-11T03:36:51.604Z,14.62
2022-09-11T03:37:53.309Z,14.62
2022-09-11T03:38:55.034Z,14.62
2022-09-11T03:39:56.819Z,14.62
2022-09-11T03:40:58.521Z,14.62
2022-09-11T03:42:00.246Z,14.62
2022-09-11T03:43:01.975Z,14.6
2022-09-11T03:44:03.711Z,14.6
2022-09-11T03:45:05.448Z,14.59
2022-09-11T03:46:07.291Z,14.58
2022-09-11T03:47:08.938Z,14.58
2022-09-11T03:48:10.677Z,14.57
2022-09-11T03:49:12.397Z,14.56
2022-09-11T03:50:14.131Z,14.55
2022-09-11T03:51:15.876Z,14.54
2022-09-11T03:52:17.611Z,14.53
2022-09-11T03:53:19.331Z,14.52
2022-09-11T03:54:21.066Z,14.52
2022-09-11T03:55:22.791Z,14.5
2022-09-11T03:56:24.550Z,14.5
2022-09-11T03:57:26.268Z,14.5
2022-09-11T03:58:28.016Z,14.48
2022-09-11T03:59:29.727Z,14.48
2022-09-11T04:00:31.458Z,14.47
2022-09-11T04:01:33.219Z,14.46
2022-09-11T04:02:34.924Z,14.46
2022-09-11T04:03:36.663Z,14.46
2022-09-11T04:04:38.411Z,14.46
2022-09-11T04:05:40.147Z,14.45
2022-09-11T04:06:41.885Z,14.45
2022-09-11T04:07:43.627Z,14.45
2022-09-11T04:08:45.352Z,14.45
2022-09-11T04:09:47.076Z,14.44
2022-09-11T04:10:48.821Z,14.45
2022-09-11T04:11:50.564Z,14.44
2022-09-11T04:12:52.287Z,14.44
2022-09-11T04:13:54.035Z,14.44
2022-09-11T04:14:55.763Z,14.44
2022-09-11T04:15:57.499Z,14.43
2022-09-11T04:16:59.332Z,14.43
2022-09-11T04:18:05.268Z,14.43
2022-09-11T04:19:02.691Z,14.43
2022-09-11T04:20:04.426Z,14.43
2022-09-11T04:21:06.170Z,14.42
2022-09-11T04:22:07.915Z,14.42
2022-09-11T04:23:09.638Z,14.42
2022-09-11T04:24:11.353Z,14.43
2022-09-11T04:25:13.088Z,14.42
2022-09-11T04:26:15.044Z,14.42
2022-09-11T04:27:16.567Z,14.41
2022-09-11T04:28:18.310Z,14.41
2022-09-11T04:29:20.042Z,14.4
2022-09-11T04:30:21.792Z,14.4
2022-09-11T04:31:23.530Z,14.4
2022-09-11T04:32:26.381Z,14.4
2022-09-11T04:33:26.976Z,14.38
2022-09-11T04:34:28.709Z,14.38
2022-09-11T04:35:30.442Z,14.37
2022-09-11T04:36:32.193Z,14.38
2022-09-11T04:37:33.903Z,14.37
2022-09-11T04:38:35.668Z,14.37
2022-09-11T04:39:37.435Z,14.36
2022-09-11T04:40:39.130Z,14.36
2022-09-11T04:41:40.859Z,14.36
2022-09-11T04:42:42.584Z,14.34
2022-09-11T04:43:44.324Z,14.34
2022-09-11T04:44:46.074Z,14.32
2022-09-11T04:45:47.828Z,14.3
2022-09-11T04:46:49.533Z,14.29
2022-09-11T04:47:51.242Z,14.27
2022-09-11T04:48:52.975Z,14.26
2022-09-11T04:49:54.724Z,14.24
2022-09-11T04:50:56.468Z,14.23
2022-09-11T04:51:58.201Z,14.21
2022-09-11T04:52:59.920Z,14.19
2022-09-11T04:54:01.643Z,14.16
2022-09-11T04:55:03.387Z,14.14
2022-09-11T04:56:05.125Z,14.11
2022-09-11T04:57:06.858Z,14.09
2022-09-11T04:58:08.590Z,14.06
2022-09-11T04:59:10.331Z,14.02
2022-09-11T05:00:12.059Z,13.99
2022-09-11T05:01:13.864Z,13.96
2022-09-11T05:02:15.611Z,13.93
2022-09-11T05:03:17.267Z,13.9
2022-09-11T05:04:22.865Z,13.88
2022-09-11T05:05:20.738Z,13.85
2022-09-11T05:06:22.492Z,13.83
2022-09-11T05:07:24.201Z,13.81
2022-09-11T05:08:25.955Z,13.79
2022-09-11T05:09:27.774Z,13.77
2022-09-11T05:10:29.418Z,13.75
2022-09-11T05:11:31.149Z,13.73
2022-09-11T05:12:32.878Z,13.72
2022-09-11T05:13:36.551Z,13.72
2022-09-11T05:14:36.362Z,13.71
2022-09-11T05:15:38.086Z,13.72
2022-09-11T05:16:39.905Z,13.72
2022-09-11T05:17:41.551Z,13.72
2022-09-11T05:18:43.298Z,13.72
2022-09-11T05:19:45.042Z,13.72
2022-09-11T05:20:46.799Z,13.74
2022-09-11T05:21:48.561Z,13.75
2022-09-11T05:22:50.226Z,13.76
2022-09-11T05:23:51.948Z,13.78
2022-09-11T05:24:53.781Z,13.79
2022-09-11T05:25:55.432Z,13.81
2022-09-11T05:26:57.178Z,13.82
2022-09-11T05:27:58.897Z,13.84
2022-09-11T05:29:00.639Z,13.86
2022-09-11T05:30:02.382Z,13.86
2022-09-11T05:31:04.109Z,13.89
2022-09-11T05:32:05.863Z,13.91
2022-09-11T05:33:07.569Z,13.92
2022-09-11T05:34:09.309Z,13.94
2022-09-11T05:35:11.040Z,13.95
2022-09-11T05:36:12.803Z,13.96
2022-09-11T05:37:14.533Z,13.99
2022-09-11T05:38:16.251Z,13.99
2022-09-11T05:39:17.970Z,14
2022-09-11T05:40:19.735Z,14.01
2022-09-11T05:41:21.457Z,14.03
2022-09-11T05:42:23.178Z,14.05
2022-09-11T05:43:24.919Z,14.06
2022-09-11T05:44:26.667Z,14.07
2022-09-11T05:45:28.584Z,14.09
2022-09-11T05:46:40.905Z,14.1
2022-09-11T05:47:31.844Z,14.11
2022-09-11T05:48:33.593Z,14.12
2022-09-11T05:49:35.321Z,14.13
2022-09-11T05:50:37.061Z,14.16
2022-09-11T05:51:38.792Z,14.16
2022-09-11T05:52:40.547Z,14.18
2022-09-11T05:53:42.443Z,14.19
2022-09-11T05:54:44.028Z,14.21
2022-09-11T05:55:45.727Z,14.22
2022-09-11T05:56:47.473Z,14.24
2022-09-11T05:57:49.204Z,14.25
2022-09-11T05:58:50.930Z,14.27
2022-09-11T05:59:52.669Z,14.27
2022-09-11T06:00:54.444Z,14.28
2022-09-11T06:01:56.177Z,14.29
2022-09-11T06:02:57.871Z,14.3
2022-09-11T06:03:59.595Z,14.3
2022-09-11T06:05:01.342Z,14.32
2022-09-11T06:06:04.084Z,14.32
2022-09-11T06:07:04.800Z,14.33
2022-09-11T06:08:06.569Z,14.35
2022-09-11T06:09:08.305Z,14.36
2022-09-11T06:10:10.030Z,14.37
2022-09-11T06:11:11.766Z,14.38
2022-09-11T06:12:13.507Z,14.39
2022-09-11T06:13:15.278Z,14.41
2022-09-11T06:14:16.962Z,14.41
2022-09-11T06:15:42.815Z,14.43
2022-09-11T06:16:20.495Z,14.44
2022-09-11T06:17:22.176Z,14.45
2022-09-11T06:18:23.916Z,14.46
2022-09-11T06:19:25.632Z,14.48
2022-09-11T06:20:27.369Z,14.49
2022-09-11T06:21:29.141Z,14.51
2022-09-11T06:22:30.843Z,14.52
2022-09-11T06:23:32.581Z,14.54
2022-09-11T06:24:34.322Z,14.56
2022-09-11T06:25:36.041Z,14.58
2022-09-11T06:26:37.807Z,14.59
2022-09-11T06:27:39.514Z,14.62
2022-09-11T06:28:41.267Z,14.65
2022-09-11T06:29:42.999Z,14.69
2022-09-11T06:30:44.791Z,14.71
2022-09-11T06:31:46.454Z,14.75
2022-09-11T06:32:48.185Z,14.77
2022-09-11T06:33:49.932Z,14.81
2022-09-11T06:34:51.648Z,14.86
2022-09-11T06:35:53.379Z,14.89
2022-09-11T06:36:55.138Z,14.93
2022-09-11T06:37:56.854Z,14.97
2022-09-11T06:38:58.586Z,15
2022-09-11T06:40:00.433Z,15.03
2022-09-11T06:41:05.071Z,15.08
2022-09-11T06:42:03.809Z,15.12
2022-09-11T06:43:05.539Z,15.16
2022-09-11T06:44:07.249Z,15.2
2022-09-11T06:45:09.003Z,15.23
2022-09-11T06:46:10.761Z,15.28
2022-09-11T06:47:12.466Z,15.31
2022-09-11T06:48:14.195Z,15.34
2022-09-11T06:49:15.958Z,15.37
2022-09-11T06:50:17.677Z,15.41
2022-09-11T06:51:19.406Z,15.45
2022-09-11T06:52:21.141Z,15.48
2022-09-11T06:53:22.892Z,15.51
2022-09-11T06:54:24.606Z,15.53
2022-09-11T06:55:26.344Z,15.55
2022-09-11T06:56:28.099Z,15.57
2022-09-11T06:57:29.824Z,15.59
2022-09-11T06:58:31.559Z,15.61
2022-09-11T06:59:33.277Z,15.62
2022-09-11T07:00:35.027Z,15.63
2022-09-11T07:01:36.834Z,15.64
2022-09-11T07:02:38.487Z,15.65
2022-09-11T07:03:40.303Z,15.66
2022-09-11T07:04:41.964Z,15.67
2022-09-11T07:05:43.708Z,15.69
2022-09-11T07:06:45.442Z,15.69
2022-09-11T07:07:47.152Z,15.7
2022-09-11T07:08:48.899Z,15.71
2022-09-11T07:09:50.634Z,15.72
2022-09-11T07:10:52.386Z,15.73
2022-09-11T07:11:54.117Z,15.74
2022-09-11T07:12:55.842Z,15.74
2022-09-11T07:13:57.566Z,15.76
2022-09-11T07:14:59.311Z,15.77
2022-09-11T07:16:01.088Z,15.78
2022-09-11T07:17:02.780Z,15.79
2022-09-11T07:18:04.516Z,15.81
2022-09-11T07:19:06.228Z,15.82
2022-09-11T07:20:07.966Z,15.84
2022-09-11T07:21:09.722Z,15.86
2022-09-11T07:22:11.448Z,15.87
2022-09-11T07:23:13.206Z,15.89
2022-09-11T07:24:14.911Z,15.9
2022-09-11T07:25:16.662Z,15.91
2022-09-11T07:26:18.385Z,15.91
2022-09-11T07:27:20.125Z,15.92
2022-09-11T07:28:21.847Z,15.94
2022-09-11T07:29:23.586Z,15.93
2022-09-11T07:30:25.359Z,15.95
2022-09-11T07:31:27.078Z,15.97
2022-09-11T07:32:28.807Z,15.98
2022-09-11T07:33:30.510Z,16
2022-09-11T07:34:32.249Z,16.02
2022-09-11T07:35:34.000Z,16.05
2022-09-11T07:36:35.729Z,16.08
2022-09-11T07:37:37.472Z,16.12
2022-09-11T07:38:39.181Z,16.17
2022-09-11T07:39:41.006Z,16.22
2022-09-11T07:40:42.652Z,16.26
2022-09-11T07:41:44.402Z,16.29
2022-09-11T07:42:46.125Z,16.32
2022-09-11T07:43:47.851Z,16.34
2022-09-11T07:44:49.595Z,16.36
2022-09-11T07:45:51.391Z,16.39
2022-09-11T07:46:53.103Z,16.43
2022-09-11T07:47:54.790Z,16.44
2022-09-11T07:48:56.516Z,16.46
2022-09-11T07:49:58.271Z,16.48
2022-09-11T07:51:00.001Z,16.49
2022-09-11T07:52:01.738Z,16.5
2022-09-11T07:53:03.460Z,16.51
2022-09-11T07:54:05.216Z,16.52
2022-09-11T07:55:06.924Z,16.53
2022-09-11T07:56:08.670Z,16.55
2022-09-11T07:57:10.428Z,16.55
2022-09-11T07:58:12.138Z,16.56
2022-09-11T07:59:13.873Z,16.57
2022-09-11T08:00:15.636Z,16.57
2022-09-11T08:01:17.481Z,16.58
2022-09-11T08:02:19.137Z,16.59
2022-09-11T08:03:21.851Z,16.59
2022-09-11T08:04:22.542Z,16.58
2022-09-11T08:05:24.279Z,16.58
2022-09-11T08:06:26.037Z,16.58
2022-09-11T08:07:27.774Z,16.57
2022-09-11T08:08:29.491Z,16.57
2022-09-11T08:09:31.202Z,16.55
2022-09-11T08:10:32.939Z,16.55
2022-09-11T08:11:34.725Z,16.55
2022-09-11T08:12:36.439Z,16.54
2022-09-11T08:13:38.138Z,16.52
2022-09-11T08:14:39.888Z,16.52
2022-09-11T08:15:41.616Z,16.52
2022-09-11T08:16:43.383Z,16.49
2022-09-11T08:17:45.082Z,16.48
2022-09-11T08:18:46.824Z,16.48
2022-09-11T08:19:48.553Z,16.48
2022-09-11T08:20:50.290Z,16.5
2022-09-11T08:21:52.024Z,16.52
2022-09-11T08:22:53.752Z,16.58
2022-09-11T08:23:55.480Z,16.63
2022-09-11T08:24:57.201Z,16.68
2022-09-11T08:25:58.948Z,16.78
2022-09-11T08:27:00.675Z,16.87
2022-09-11T08:28:02.414Z,16.97
2022-09-11T08:29:04.148Z,17.05
2022-09-11T08:30:05.912Z,17.12
2022-09-11T08:31:07.701Z,17.18
2022-09-11T08:32:09.367Z,17.25
2022-09-11T08:33:11.080Z,17.32
2022-09-11T08:34:12.811Z,17.42
2022-09-11T08:35:14.564Z,17.49
2022-09-11T08:36:16.305Z,17.54
2022-09-11T08:37:18.034Z,17.62
2022-09-11T08:38:19.760Z,17.71
2022-09-11T08:39:21.493Z,17.78
2022-09-11T08:40:23.267Z,17.85
2022-09-11T08:41:27.358Z,17.91
2022-09-11T08:42:26.698Z,17.97
2022-09-11T08:43:28.437Z,18.01
2022-09-11T08:44:30.158Z,18.06
2022-09-11T08:45:31.920Z,18.11
2022-09-11T08:46:33.645Z,18.14
2022-09-11T08:47:35.364Z,18.18
2022-09-11T08:48:37.092Z,18.23
2022-09-11T08:49:38.829Z,18.29
2022-09-11T08:50:40.551Z,18.33
2022-09-11T08:51:42.529Z,18.35
2022-09-11T08:52:44.042Z,18.38
2022-09-11T08:53:45.799Z,18.38
2022-09-11T08:54:47.502Z,18.42
2022-09-11T08:55:49.231Z,18.43
2022-09-11T08:56:50.993Z,18.43
2022-09-11T08:57:52.710Z,18.5
2022-09-11T08:58:54.444Z,18.5
2022-09-11T08:59:56.173Z,18.48
2022-09-11T09:00:57.966Z,18.47
2022-09-11T09:01:59.687Z,18.44
2022-09-11T09:03:01.443Z,18.42
2022-09-11T09:04:03.136Z,18.41
2022-09-11T09:05:04.852Z,18.41
2022-09-11T09:06:06.621Z,18.42
2022-09-11T09:07:08.341Z,18.4
2022-09-11T09:08:10.077Z,18.36
2022-09-11T09:09:11.799Z,18.39
2022-09-11T09:10:13.552Z,18.41
2022-09-11T09:11:15.267Z,18.42
2022-09-11T09:12:17.038Z,18.45
2022-09-11T09:13:18.736Z,18.49
2022-09-11T09:14:20.468Z,18.55
2022-09-11T09:15:24.274Z,18.57
2022-09-11T09:16:23.928Z,18.55
2022-09-11T09:17:25.684Z,18.56
2022-09-11T09:18:27.406Z,18.57
2022-09-11T09:19:29.151Z,18.61
2022-09-11T09:20:30.876Z,18.6
2022-09-11T09:21:32.626Z,18.61
2022-09-11T09:22:34.353Z,18.61
2022-09-11T09:23:36.083Z,18.58
2022-09-11T09:24:37.893Z,18.56
2022-09-11T09:25:39.546Z,18.54
2022-09-11T09:26:41.292Z,18.54
2022-09-11T09:27:43.012Z,18.5
2022-09-11T09:28:44.782Z,18.49
2022-09-11T09:29:46.527Z,18.46
2022-09-11T09:30:48.299Z,18.46
2022-09-11T09:31:49.969Z,18.43
2022-09-11T09:32:51.685Z,18.41
2022-09-11T09:33:53.446Z,18.36
2022-09-11T09:34:55.170Z,18.34
2022-09-11T09:35:56.908Z,18.33
2022-09-11T09:36:58.633Z,18.32
2022-09-11T09:38:00.382Z,18.31
2022-09-11T09:39:02.079Z,18.3
2022-09-11T09:40:03.889Z,18.31
2022-09-11T09:41:05.573Z,18.32
2022-09-11T09:42:07.297Z,18.36
2022-09-11T09:43:09.017Z,18.39
2022-09-11T09:44:10.774Z,18.4
2022-09-11T09:49:51.235Z,18.5
2022-09-11T09:50:52.959Z,18.54
2022-09-11T09:51:54.711Z,18.54
2022-09-11T09:52:56.423Z,18.58
2022-09-11T09:53:58.136Z,18.63
2022-09-11T09:55:10.220Z,18.64
2022-09-11T09:56:11.900Z,18.73
2022-09-11T09:57:13.654Z,18.79
2022-09-11T09:58:15.359Z,18.87
2022-09-11T09:59:17.099Z,18.94
2022-09-11T10:00:20.847Z,19
2022-09-11T10:01:25.713Z,19.09
2022-09-11T10:02:27.603Z,19.17
2022-09-11T10:03:30.428Z,19.21
2022-09-11T10:04:31.132Z,19.23
2022-09-11T10:05:32.904Z,19.23
2022-09-11T10:06:34.623Z,19.24
2022-09-11T10:07:36.351Z,19.26
2022-09-11T10:08:38.085Z,19.29
2022-09-11T10:09:39.833Z,19.36
2022-09-11T10:10:41.552Z,19.4
2022-09-11T10:11:46.176Z,19.47
2022-09-11T10:14:10.097Z,19.63
2022-09-11T10:15:13.244Z,19.68
2022-09-11T10:18:00.249Z,19.82
2022-09-11T10:19:17.284Z,19.89
2022-09-11T10:20:18.797Z,19.97
2022-09-11T10:21:20.552Z,20.02
2022-09-11T10:22:22.256Z,20.07
2022-09-11T10:23:23.991Z,20.1
2022-09-11T10:24:25.733Z,20.13
2022-09-11T10:25:27.470Z,20.17
2022-09-11T10:26:29.217Z,20.2
2022-09-11T10:27:30.939Z,20.2
2022-09-11T10:28:32.690Z,20.18
2022-09-11T10:29:34.445Z,20.17
2022-09-11T10:30:36.145Z,20.15
2022-09-11T10:31:37.890Z,20.1
2022-09-11T10:32:39.653Z,20.08
2022-09-11T10:33:41.353Z,20.03
2022-09-11T10:34:43.073Z,19.97
2022-09-11T10:35:44.797Z,19.91
2022-09-11T10:36:46.550Z,19.87
2022-09-11T10:37:48.268Z,19.91
2022-09-11T10:38:50.004Z,19.92
2022-09-11T10:39:51.791Z,19.93
2022-09-11T10:40:53.468Z,19.96
2022-09-11T10:41:55.235Z,19.98
2022-09-11T10:42:56.958Z,19.98
2022-09-11T10:43:58.703Z,19.96
2022-09-11T10:45:00.403Z,19.97
2022-09-11T10:46:05.344Z,19.97
2022-09-11T10:47:03.915Z,19.96
2022-09-11T10:48:05.618Z,19.94
2022-09-11T10:49:07.339Z,19.91
2022-09-11T10:50:09.081Z,19.92
2022-09-11T10:51:10.868Z,19.97
2022-09-11T10:52:12.567Z,19.96
2022-09-11T10:53:14.291Z,19.92
2022-09-11T10:54:16.023Z,19.92
2022-09-11T10:55:17.744Z,19.93
2022-09-11T10:56:19.467Z,19.92
2022-09-11T10:57:21.239Z,19.9
2022-09-11T10:58:22.953Z,19.89
2022-09-11T10:59:24.691Z,19.85
2022-09-11T11:00:26.428Z,19.83
2022-09-11T11:01:28.229Z,19.82
2022-09-11T11:02:30.016Z,19.82
2022-09-11T11:03:31.635Z,19.81
2022-09-11T11:04:33.372Z,19.76
2022-09-11T11:05:35.135Z,19.76
2022-09-11T11:06:36.874Z,19.74
2022-09-11T11:07:38.591Z,19.8
2022-09-11T11:08:40.402Z,19.84
2022-09-11T11:09:42.041Z,19.88
2022-09-11T11:10:43.784Z,19.92
2022-09-11T11:11:45.547Z,19.96
2022-09-11T11:12:47.243Z,20.04
2022-09-11T11:13:48.962Z,20.13
2022-09-11T11:14:50.705Z,20.23
2022-09-11T11:15:52.448Z,20.27
2022-09-11T11:16:54.195Z,20.3
2022-09-11T11:17:55.913Z,20.29
2022-09-11T11:18:57.639Z,20.28
2022-09-11T11:19:59.439Z,20.27
2022-09-11T11:21:01.166Z,20.27
2022-09-11T11:22:03.001Z,20.24
2022-09-11T11:23:04.939Z,20.23
2022-09-11T11:24:06.622Z,20.18
2022-09-11T11:25:08.063Z,20.15
2022-09-11T11:26:09.791Z,20.1
2022-09-11T11:27:11.528Z,20.03
2022-09-11T11:28:13.238Z,19.98
2022-09-11T11:29:15.007Z,19.94
2022-09-11T11:30:16.723Z,19.88
2022-09-11T11:31:18.547Z,19.85
2022-09-11T11:32:20.219Z,19.83
2022-09-11T11:33:21.938Z,19.76
2022-09-11T11:34:23.696Z,19.75
2022-09-11T11:35:25.384Z,19.72
2022-09-11T11:36:27.121Z,19.68
2022-09-11T11:37:28.855Z,19.64
2022-09-11T11:38:30.583Z,19.62
2022-09-11T11:39:32.314Z,19.6
2022-09-11T11:40:34.046Z,19.57
2022-09-11T11:41:35.789Z,19.54
2022-09-11T11:42:37.514Z,19.53
2022-09-11T11:43:39.256Z,19.5
2022-09-11T11:44:40.989Z,19.48
2022-09-11T11:45:42.817Z,19.46
2022-09-11T11:46:58.379Z,19.44
2022-09-11T11:47:59.732Z,19.42
2022-09-11T11:49:01.431Z,19.4
2022-09-11T11:50:03.158Z,19.39
2022-09-11T11:51:04.885Z,19.39
2022-09-11T11:52:06.627Z,19.38
2022-09-11T11:53:08.352Z,19.38
2022-09-11T11:54:10.096Z,19.37
2022-09-11T11:55:11.803Z,19.38
2022-09-11T11:56:13.555Z,19.42
2022-09-11T11:57:15.301Z,19.45
2022-09-11T11:58:17.032Z,19.52
2022-09-11T11:59:23.771Z,19.58
2022-09-11T12:00:25.750Z,19.66
2022-09-11T12:01:27.281Z,19.77
2022-09-11T12:02:29.000Z,19.86
2022-09-11T12:03:30.781Z,19.94
2022-09-11T12:04:32.505Z,20.02
2022-09-11T12:05:34.206Z,20.08
2022-09-11T12:06:35.995Z,20.16
2022-09-11T12:07:37.678Z,20.23
2022-09-11T12:08:39.512Z,20.31
2022-09-11T12:09:41.147Z,20.4
2022-09-11T12:10:42.855Z,20.48
2022-09-11T12:11:44.648Z,20.58
2022-09-11T12:12:46.320Z,20.69
2022-09-11T12:13:48.054Z,20.78
2022-09-11T12:14:49.797Z,20.89
2022-09-11T12:15:51.571Z,20.98
2022-09-11T12:16:53.286Z,21.05
2022-09-11T12:17:54.995Z,21.09
2022-09-11T12:18:56.735Z,21.15
2022-09-11T12:19:58.475Z,21.16
2022-09-11T12:21:00.212Z,21.19
2022-09-11T12:22:01.964Z,21.18
2022-09-11T12:23:03.676Z,21.18
2022-09-11T12:24:05.408Z,21.15
2022-09-11T12:25:07.134Z,21.15
2022-09-11T12:26:08.859Z,21.12
2022-09-11T12:27:11.942Z,21.11
2022-09-11T12:28:12.358Z,21.06
2022-09-11T12:29:15.457Z,21.02
2022-09-11T12:30:15.845Z,21
2022-09-11T12:31:17.630Z,20.96
2022-09-11T12:32:19.308Z,20.93
2022-09-11T12:33:21.019Z,20.89
2022-09-11T12:34:22.782Z,20.85
2022-09-11T12:35:24.494Z,20.81
2022-09-11T12:36:26.222Z,20.78
2022-09-11T12:37:27.972Z,20.73
2022-09-11T12:38:29.688Z,20.69
2022-09-11T12:39:31.420Z,20.65
2022-09-11T12:40:33.162Z,20.61
2022-09-11T12:41:34.909Z,20.58
2022-09-11T12:42:36.654Z,20.55
2022-09-11T12:43:38.369Z,20.52
2022-09-11T12:44:40.122Z,20.49
2022-09-11T12:45:41.837Z,20.47
2022-09-11T12:46:43.568Z,20.45
2022-09-11T12:47:46.300Z,20.43
2022-09-11T12:48:56.387Z,20.4
2022-09-11T12:49:48.758Z,20.38
2022-09-11T12:50:50.506Z,20.34
2022-09-11T12:51:52.266Z,20.33
2022-09-11T12:52:53.942Z,20.31
2022-09-11T12:53:55.734Z,20.29
2022-09-11T12:54:57.439Z,20.27
2022-09-11T12:55:59.185Z,20.24
2022-09-11T12:57:01.013Z,20.22
2022-09-11T12:58:02.645Z,20.21
2022-09-11T12:59:04.369Z,20.19
2022-09-11T13:00:06.225Z,20.17
2022-09-11T13:01:07.891Z,20.17
2022-09-11T13:02:09.705Z,20.15
2022-09-11T13:03:11.324Z,20.16
2022-09-11T13:04:13.063Z,20.14
2022-09-11T13:05:14.795Z,20.15
2022-09-11T13:06:16.530Z,20.14
2022-09-11T13:07:18.316Z,20.14
2022-09-11T13:08:20.094Z,20.15
2022-09-11T13:09:21.732Z,20.14
2022-09-11T13:10:23.521Z,20.16
2022-09-11T13:11:25.322Z,20.16
2022-09-11T13:12:26.954Z,20.16
2022-09-11T13:13:28.659Z,20.18
2022-09-11T13:14:30.409Z,20.17
2022-09-11T13:15:32.179Z,20.19
2022-09-11T13:16:33.849Z,20.19
2022-09-11T13:17:35.610Z,20.19
2022-09-11T13:18:37.313Z,20.21
2022-09-11T13:19:39.069Z,20.22
2022-09-11T13:20:40.785Z,20.23
2022-09-11T13:21:42.548Z,20.26
2022-09-11T13:22:46.674Z,20.28
2022-09-11T13:23:45.994Z,20.31
2022-09-11T13:24:47.733Z,20.34
2022-09-11T13:25:49.452Z,20.37
2022-09-11T13:26:51.242Z,20.39
2022-09-11T13:27:52.958Z,20.4